• Join FlightAware (Why Join?)
  • Login
  • US Flag 
03:52AM EDT


 

Airport Tracker/Info


-or-


 

Live Flight TrackerFlight Track Log ✈ BVN7571 ✈ 28-Jun-2013 ✈ KEAR - KOMA

Flight Track Log - Related Links

Times and Time Zones

All times are in EDT time to prevent confusion due to time zone crossing. See the BVN7571 flight status page for this flight to view local times or setup timezone preferences in your user account.

Time Position Orientation Groundspeed Altitude Reporting Facility
EDT Latitude Longitude Course Direction KTS MPH feet Rate Location/Type
08:11PM 40.7614 -98.8936 75° East 120 138 4,500  Level Minneapolis Center
08:12PM 40.7706 -98.8472 75° East 124 143 5,100 600 Climbing Minneapolis Center
08:13PM 40.7803 -98.7997 75° East 130 150 5,800 660 Climbing Minneapolis Center
08:14PM 40.7886 -98.7508 77° East 134 154 6,500 540 Climbing Minneapolis Center
08:15PM 40.7997 -98.6908 76° East 138 159 7,000 240 Climbing Minneapolis Center
08:16PM 40.7957 -98.6612 75° East  Level Estimated
08:16PM 40.8108 -98.6342 75° East 147 169 7,000  Level Minneapolis Center
08:17PM 40.8214 -98.5731 77° East 160 184 7,000  Level Minneapolis Center
08:18PM 40.8333 -98.5161 74° East 163 188 7,000  Level Minneapolis Center
08:19PM 40.8467 -98.4478 76° East 162 186 7,000  Level Minneapolis Center
08:20PM 40.8581 -98.3911 75° East 161 185 7,000  Level Minneapolis Center
08:21PM 40.8689 -98.3339 76° East 161 185 7,000  Level Minneapolis Center
08:22PM 40.8819 -98.2664 76° East 160 184 7,000  Level Minneapolis Center
08:23PM 40.8906 -98.2206 76° East 160 184 7,000  Level Minneapolis Center
08:24PM 40.9033 -98.1506 76° East 162 186 7,000  Level Minneapolis Center
08:25PM 40.9136 -98.0925 77° East 162 186 7,000  Level Minneapolis Center
08:26PM 40.9244 -98.0336 76° East 163 188 7,000  Level Minneapolis Center
08:27PM 40.9361 -97.9758 75° East 163 188 7,000  Level Minneapolis Center
08:29PM 40.9506 -97.8950 77° East 162 186 7,000  Level Minneapolis Center
08:30PM 40.9614 -97.8375 76° East 162 186 7,000  Level Minneapolis Center
08:31PM 40.9750 -97.7681 75° East 162 186 7,000 -60 Level Minneapolis Center
08:32PM 40.9853 -97.7089 77° East 163 188 6,900 -60 Descending Minneapolis Center
08:33PM 40.9958 -97.6500 77° East 164 189 6,900  Level Minneapolis Center
08:34PM 41.0083 -97.5836 76° East 159 183 6,900  Level Minneapolis Center
08:35PM 40.9947 -97.5353 110° East 159 183 6,900  Level Minneapolis Center
08:36PM 41.0311 -97.4572 58° Northeast 160 184 6,900  Level Minneapolis Center
08:37PM 41.0194 -97.4064 107° East 159 183 6,900  Level Minneapolis Center
08:38PM 41.0308 -97.3472 76° East 159 183 6,900  Level Minneapolis Center
08:39PM 41.0375 -97.3136 75° East 160 184 6,900  Level Minneapolis Center
08:39PM 41.0606 -97.2878 40° Northeast 158 182 6,900  Level Minneapolis Center
08:40PM 41.0714 -97.2300 76° East 159 183 6,900  Level Minneapolis Center
08:41PM 41.0814 -97.1728 77° East 160 184 6,900  Level Minneapolis Center
08:42PM 41.0914 -97.1158 77° East 160 184 6,900  Level Minneapolis Center
08:44PM 41.1036 -97.0475 77° East 159 183 6,900  Level Minneapolis Center
08:45PM 41.1136 -96.9900 77° East 159 183 6,900  Level Minneapolis Center
08:46PM 41.1250 -96.9214 78° East 160 184 6,900  Level Minneapolis Center
08:47PM 41.1358 -96.8647 76° East 159 183 6,900  Level Minneapolis Center
08:48PM 41.1453 -96.8081 78° East 158 182 6,900  Level Minneapolis Center
08:49PM 41.1472 -96.7419 88° East 153 176 6,900  Level Minneapolis Center
08:50PM 41.1569 -96.6911 76° East 158 182 6,900  Level Minneapolis Center
08:51PM 41.1694 -96.6206 77° East 163 188 6,900  Level Minneapolis Center
08:52PM 41.1789 -96.5697 76° East 169 194 6,900 -60 Level Minneapolis Center
08:53PM 41.1917 -96.5047 75° East 165 190 6,800 -180 Descending Minneapolis Center
08:54PM 41.2064 -96.4367 74° East 173 199 6,500 -360 Descending Minneapolis Center
08:55PM 41.2153 -96.3775 79° East 173 199 6,100 -360 Descending Minneapolis Center
08:56PM 41.2261 -96.3156 77° East 172 198 5,900 -540 Descending Minneapolis Center
08:57PM 41.2386 -96.2503 76° East 179 206 5,100 -720 Descending Minneapolis Center
08:58PM 41.2511 -96.1825 76° East 182 209 4,500 -660 Descending Minneapolis Center
08:59PM 41.2547 -96.1100 86° East 183 211 3,800 -780 Descending Minneapolis Center
09:00PM 41.2556 -96.0572 89° East 185 213 3,100 -720 Descending Minneapolis Center
09:01PM 41.2594 -95.9875 86° East 177 204 2,500 -660 Descending Minneapolis Center
09:02PM 41.2700 -95.9253 77° East 173 199 1,800 -660 Descending Minneapolis Center
09:03PM 41.2764 -95.8972 73° East 176 203 1,500 -540 Descending Minneapolis Center
09:04PM 41.3033 -95.8967 North 144 166 1,000 -540 Descending Minneapolis Center